Poza Rica, VER, Mexico
Current Conditions -  °F | °C
As of 8:40 AM on Monday 22 Dec 2014 (Local Time) from MMPA Reporting Station
Haze Haze  
Wind Chill: 68°   Ceiling: 1200
Heat Index: 68°   Visibility: 3mi
Dew Point: 66°   Wind: 0mph
Humidity: 94%   Direction: NA
Pressure: 29.9"   Gusts: NA
Location:  20.55°N, 97.47°W
Report Text: MMPA 221440Z 00000KT 3SM BR HZ BKN012 OVC020 20/19 A2990 RMK SLP079 52006 968 8/8//
Loading
Personal Weather Stations






























Interactive Weather Map New forecast layout! Learn more

10-Day Weather Forecast

Advertisements
Track Severe Weather on mobile